Latest Weather Observations for East Sale Airport

IDV60801

Issued at 11:13 pm EDT Friday 23 October 2020 (issued every 10 minutes, with the page automatically refreshed every 10 minutes)

About weather observations | Map of weather stations | Latest weather observations for VIC | Other Formats
Station Details ID: 085314 Name: EAST SALE AIRPORT Lat: -38.10 Lon: 147.14 Height: 5.3 m
Data from the previous 72 hours. | See also: Recent months at East Sale Airport
Date/Time
EDT
Temp
°C
App
Temp
°C
Dew
Point
°C
Rel
Hum
%
Delta-T
°C
Wind Press
QNH
hPa
Press
MSL
hPa
Rain since
9am
mm
Dir  Spd
km/h
Gust
km/h
Spd
kts
Gust
kts
23/11:00pm 15.0 14.7 14.5 97 0.3 SW 9 11 5 6 1004.8 1005.1 3.2
23/10:30pm 15.0 15.1 14.4 96 0.3 WSW 7 9 4 5 1005.4 - 3.0
23/10:00pm 15.1 15.4 14.5 96 0.3 W 6 7 3 4 1005.6 - 2.8
23/09:30pm 15.1 15.7 14.3 95 0.5 N 4 7 2 4 1006.0 - 2.4
23/09:00pm 15.2 15.3 14.4 95 0.5 E 7 11 4 6 1005.9 - 2.0
23/08:30pm 15.4 15.7 14.4 94 0.6 ESE 6 11 3 6 1005.7 - 1.6
23/08:00pm 15.6 15.6 14.3 92 0.7 SE 7 13 4 7 1006.0 - 0.2
23/07:30pm 15.7 14.9 14.1 90 0.9 SE 11 13 6 7 1005.8 - 0.0
23/07:00pm 16.0 15.2 14.0 88 1.1 SSE 11 13 6 7 1005.6 - 0.0
23/06:30pm 16.5 14.5 14.0 85 1.4 SSE 17 20 9 11 1005.4 - 0.0
23/06:00pm 16.9 14.6 14.0 83 1.7 SSE 19 24 10 13 1005.5 - 0.0
23/05:30pm 17.8 15.6 14.3 80 2.0 SSE 19 28 10 15 1005.5 - 0.0
23/05:00pm 19.0 15.5 14.5 75 2.6 S 26 33 14 18 1005.0 - 0.0
23/04:30pm 20.6 17.4 15.4 72 3.1 SSE 26 33 14 18 1005.2 - 0.0
23/04:00pm 22.5 22.3 15.6 65 4.1 SSE 11 15 6 8 1005.0 - 0.0
23/03:30pm 21.5 21.6 15.6 69 3.5 SE 9 13 5 7 1005.5 - 0.0
23/03:00pm 21.6 21.6 15.2 67 3.8 SE 9 13 5 7 1005.5 - 0.0
23/02:30pm 20.7 21.0 14.6 68 3.6 SE 6 11 3 6 1006.1 - 0.0
23/02:00pm 20.9 20.7 14.8 68 3.6 NE 9 13 5 7 1006.7 - 0.0
23/01:30pm 19.7 19.7 14.3 71 3.1 SE 7 13 4 7 1006.7 - 0.0
23/01:00pm 18.7 17.9 14.0 74 2.7 ENE 11 17 6 9 1007.1 - 0.0
23/12:30pm 18.1 17.0 14.4 79 2.1 E 13 19 7 10 1007.5 - 0.0
23/12:00pm 17.8 17.3 13.7 77 2.3 ESE 9 13 5 7 1008.3 - 0.0
23/11:30am 17.6 16.6 13.5 77 2.3 ENE 11 15 6 8 1008.9 - 0.0
23/11:00am 17.4 17.2 13.7 79 2.1 SE 7 9 4 5 1009.1 - 0.0
23/10:30am 17.1 16.8 13.2 78 2.2 SW 7 13 4 7 1009.2 - 0.0
23/10:00am 16.7 17.3 13.0 79 2.1 N 2 9 1 5 1009.5 - 0.0
23/09:30am 16.5 16.2 12.8 79 2.1 N 6 7 3 4 1009.4 - 0.0
23/09:00am 15.8 15.5 12.7 82 1.7 ENE 6 9 3 5 1009.6 - 0.0
23/08:30am 14.5 14.7 13.2 92 0.7 N 4 6 2 3 1009.9 - 0.0
23/08:00am 13.1 12.5 12.3 95 0.4 N 7 9 4 5 1010.0 - 0.0
23/07:30am 12.3 11.7 11.8 97 0.3 NNE 6 7 3 4 1010.0 - 0.0
23/07:00am 10.9 11.0 10.3 96 0.3 CALM 0 0 0 0 1010.1 - 0.0
23/06:58am 10.7 10.8 10.1 96 0.3 CALM 0 0 0 0 1010.1 - 0.0
23/06:40am 10.7 10.4 10.1 96 0.3 NNE 2 6 1 3 1010.0 - 0.0
23/06:30am 10.8 9.7 10.0 95 0.4 NNE 6 7 3 4 1010.1 - 0.0
23/06:00am 10.9 11.0 10.0 94 0.5 CALM 0 2 0 1 1010.1 - 0.0
23/05:30am 11.5 10.4 10.6 94 0.5 NNE 7 9 4 5 1010.0 - 0.0
23/05:00am 12.2 11.4 11.1 93 0.6 NE 6 9 3 5 1010.1 - 0.0
23/04:30am 12.9 12.0 11.5 91 0.7 NE 7 9 4 5 1010.6 - 0.0
23/04:00am 13.2 12.4 11.6 90 0.9 NE 7 9 4 5 1011.0 - 0.0
23/03:30am 13.5 12.0 11.9 90 0.9 NE 11 15 6 8 1011.1 - 0.0
23/03:00am 13.4 11.6 12.0 91 0.8 NE 13 15 7 8 1011.1 - 0.0
23/02:30am 13.2 12.1 11.9 92 0.7 ENE 9 11 5 6 1011.8 - 0.0
23/02:00am 12.8 11.6 11.5 92 0.7 NE 9 9 5 5 1012.4 - 0.0
23/01:30am 12.8 11.2 11.4 91 0.7 ENE 11 13 6 7 1012.9 - 0.0
23/01:00am 12.3 10.5 10.9 91 0.7 NE 11 13 6 7 1013.6 - 0.0
23/12:30am 12.6 10.8 11.0 90 0.8 NE 11 13 6 7 1014.1 - 0.0
23/12:00am 12.9 11.5 11.0 88 1.0 NE 9 13 5 7 1014.4 - 0.0
 
Date/Time
EDT
Temp
°C
App
Temp
°C
Dew
Point
°C
Rel
Hum
%
Delta-T
°C
Wind Press
QNH
hPa
Press
MSL
hPa
Rain since
9am
mm
Dir  Spd
km/h
Gust
km/h
Spd
kts
Gust
kts
22/11:30pm 13.2 11.5 11.3 88 1.0 NE 11 17 6 9 1014.8 - 0.0
22/11:00pm 13.2 11.4 10.9 86 1.2 NE 11 15 6 8 1015.0 - 0.0
22/10:30pm 13.7 11.6 11.0 84 1.4 NE 13 17 7 9 1015.4 - 0.0
22/10:00pm 13.9 11.5 11.4 85 1.3 NE 15 20 8 11 1015.6 - 0.0
22/09:30pm 13.9 10.5 11.1 83 1.5 NE 20 26 11 14 1015.4 - 0.0
22/09:00pm 13.9 11.4 11.1 83 1.5 NE 15 20 8 11 1015.1 - 0.0
22/08:30pm 14.0 10.4 10.6 80 1.8 ENE 20 26 11 14 1014.9 - 0.0
22/08:00pm 14.1 11.8 10.5 79 1.9 ENE 13 19 7 10 1014.8 - 0.0
22/07:30pm 14.3 11.3 10.5 78 2.0 ENE 17 24 9 13 1014.9 - 0.0
22/07:00pm 14.8 11.2 10.6 76 2.2 E 20 26 11 14 1014.8 - 0.0
22/06:30pm 15.0 11.6 10.6 75 2.3 ENE 19 22 10 12 1014.7 - 0.0
22/06:00pm 15.0 11.4 10.4 74 2.4 E 20 24 11 13 1014.6 - 0.0
22/05:30pm 15.2 11.6 10.4 73 2.5 E 20 24 11 13 1014.4 - 0.0
22/05:00pm 15.3 11.9 10.5 73 2.5 E 19 22 10 12 1014.6 - 0.0
22/04:30pm 15.4 12.0 10.6 73 2.5 E 19 24 10 13 1014.5 - 0.0
22/04:00pm 15.8 12.5 11.0 73 2.6 E 19 24 10 13 1014.5 - 0.0
22/03:30pm 15.8 12.8 10.6 71 2.8 E 17 24 9 13 1014.9 - 0.0
22/03:00pm 16.2 13.4 11.4 73 2.6 ENE 17 22 9 12 1015.0 - 0.0
22/02:30pm 15.5 13.4 11.1 75 2.3 E 13 19 7 10 1015.3 - 0.0
22/02:00pm 14.8 12.3 11.0 78 2.0 SE 15 20 8 11 1015.7 - 0.0
22/01:30pm 14.7 12.5 10.9 78 2.0 ESE 13 20 7 11 1015.6 - 0.0
22/01:00pm 14.3 12.6 11.3 82 1.6 SE 11 15 6 8 1016.1 - 0.0
22/12:30pm 14.0 12.4 11.5 85 1.3 SE 11 15 6 8 1016.3 - 0.0
22/12:29pm 14.1 12.5 11.6 85 1.3 SE 11 15 6 8 1016.3 - 0.0
22/12:00pm 13.8 11.9 11.7 87 1.1 SE 13 17 7 9 1016.6 - 0.0
22/11:30am 13.8 11.7 11.1 84 1.4 SSE 13 17 7 9 1016.7 - 0.0
22/11:00am 14.2 11.8 11.4 83 1.5 SE 15 19 8 10 1016.6 - 0.0
22/10:53am 14.0 11.5 11.0 82 1.6 SE 15 20 8 11 1016.5 - 0.0
22/10:30am 14.4 11.9 11.0 80 1.8 SSE 15 17 8 9 1016.5 - 0.0
22/10:00am 13.7 11.8 10.5 81 1.7 S 11 13 6 7 1016.9 - 0.0
22/09:30am 13.5 11.2 10.5 82 1.6 SSE 13 17 7 9 1016.6 - 0.0
22/09:00am 13.4 11.1 10.4 82 1.6 S 13 15 7 8 1016.6 - 0.0
22/08:30am 13.1 10.7 10.1 82 1.5 SSE 13 15 7 8 1016.4 - 0.0
22/08:00am 12.5 11.3 10.2 86 1.2 SSE 7 9 4 5 1016.3 - 0.0
22/07:30am 12.4 11.2 10.3 87 1.1 SE 7 9 4 5 1016.3 - 0.0
22/07:00am 12.2 11.0 10.3 88 1.0 SSE 7 9 4 5 1016.0 - 0.0
22/06:30am 12.1 10.6 10.7 91 0.7 S 9 11 5 6 1015.8 - 0.0
22/06:00am 12.1 11.0 10.8 92 0.7 SSE 7 9 4 5 1015.5 - 0.0
22/05:30am 12.1 11.0 10.8 92 0.7 SW 7 9 4 5 1015.8 - 0.0
22/05:00am 12.1 11.6 10.8 92 0.7 SW 4 6 2 3 1015.5 - 0.0
22/04:30am 12.0 10.5 10.7 92 0.7 SW 9 11 5 6 1015.5 - 0.0
22/04:00am 12.1 11.2 10.7 91 0.7 WSW 6 7 3 4 1015.5 - 0.0
22/03:30am 12.1 11.2 10.7 91 0.7 W 6 7 3 4 1015.7 - 0.0
22/03:00am 12.3 11.7 10.5 89 0.9 NW 4 6 2 3 1015.8 - 0.0
22/02:30am 12.1 11.0 10.5 90 0.8 NNW 7 7 4 4 1016.2 - 0.0
22/02:00am 12.3 11.3 10.4 88 1.0 NNW 6 7 3 4 1016.5 - 0.0
22/01:30am 12.5 11.5 10.2 86 1.2 NW 6 7 3 4 1017.0 - 0.0
22/01:00am 12.4 11.3 10.1 86 1.2 WNW 6 7 3 4 1017.3 - 0.0
22/12:30am 12.4 11.3 10.1 86 1.2 NNW 6 7 3 4 1017.3 - 0.0
22/12:00am 12.5 11.5 10.2 86 1.2 N 6 7 3 4 1017.5 - 0.0
 
Date/Time
EDT
Temp
°C
App
Temp
°C
Dew
Point
°C
Rel
Hum
%
Delta-T
°C
Wind Press
QNH
hPa
Press
MSL
hPa
Rain since
9am
mm
Dir  Spd
km/h
Gust
km/h
Spd
kts
Gust
kts
21/11:30pm 12.5 12.5 9.9 84 1.3 CALM 0 0 0 0 1017.5 - 0.0
21/11:00pm 12.6 12.7 10.0 84 1.3 CALM 0 0 0 0 1017.5 - 0.0
21/10:30pm 12.6 12.6 9.8 83 1.4 CALM 0 0 0 0 1017.7 - 0.0
21/10:00pm 12.6 11.5 9.8 83 1.4 NE 6 7 3 4 1017.6 - 0.0
21/09:30pm 12.6 11.3 9.8 83 1.4 NE 7 11 4 6 1017.6 - 0.0
21/09:00pm 12.7 11.0 9.9 83 1.4 ENE 9 11 5 6 1017.4 - 0.0
21/08:30pm 12.7 11.3 9.7 82 1.5 SE 7 9 4 5 1017.2 - 0.0
21/08:00pm 12.8 11.0 9.6 81 1.6 ESE 9 13 5 7 1016.9 - 0.0
21/07:30pm 13.0 10.4 9.4 79 1.8 SE 13 15 7 8 1016.6 - 0.0
21/07:00pm 13.3 10.8 9.7 79 1.8 SE 13 15 7 8 1016.3 - 0.0
21/06:30pm 13.5 10.6 9.7 78 1.9 SE 15 19 8 10 1016.0 - 0.0
21/06:00pm 13.9 11.7 10.7 81 1.7 SSE 13 17 7 9 1015.8 - 0.0
21/05:55pm 13.9 11.7 10.7 81 1.7 SE 13 17 7 9 1015.7 - 0.0
21/05:30pm 13.8 10.8 10.8 82 1.6 SSE 17 20 9 11 1015.5 - 0.0
21/05:00pm 13.9 10.7 11.1 83 1.5 SE 19 24 10 13 1015.3 - 0.0
21/04:30pm 13.7 10.0 11.4 86 1.2 S 22 28 12 15 1015.2 - 0.0
21/04:00pm 14.2 10.9 11.5 84 1.4 S 20 28 11 15 1015.2 - 0.0
21/03:30pm 13.9 10.6 11.6 86 1.2 S 20 26 11 14 1015.3 - 0.0
21/03:19pm 14.2 11.0 11.9 86 1.2 S 20 26 11 14 1015.3 - 0.0
21/03:00pm 14.5 10.9 11.7 83 1.5 S 22 28 12 15 1015.1 - 0.0
21/02:30pm 15.9 14.0 11.9 77 2.2 SSE 13 19 7 10 1015.2 - 0.0
21/02:00pm 16.2 14.3 12.9 81 1.8 SSE 15 17 8 9 1015.4 - 0.0
21/01:30pm 14.1 11.4 11.8 86 1.2 S 17 20 9 11 1015.6 - 0.0
21/01:00pm 14.1 11.9 12.0 87 1.1 S 15 20 8 11 1015.6 - 0.0
21/12:30pm 14.0 11.7 11.7 86 1.2 SSE 15 20 8 11 1015.7 - 0.0
21/12:25pm 14.0 11.3 11.7 86 1.2 SSE 17 20 9 11 1015.8 - 0.0
21/12:00pm 14.7 12.1 12.0 84 1.5 SE 17 20 9 11 1015.9 - 0.0
21/11:30am 15.5 14.4 12.1 80 1.9 SSW 9 13 5 7 1016.0 - 0.0
21/11:00am 15.4 14.2 11.6 78 2.0 S 9 11 5 6 1016.0 - 0.0
21/10:30am 16.7 16.3 13.0 79 2.1 SE 7 13 4 7 1016.1 - 0.0
21/10:03am 15.7 15.3 12.3 80 1.9 ESE 6 11 3 6 1016.0 - 0.0
21/10:00am 15.7 15.6 12.1 79 2.0 E 4 11 2 6 1016.0 - 0.0
21/09:30am 15.7 15.2 12.5 81 1.8 NE 7 11 4 6 1016.0 - 0.0
21/09:00am 14.9 13.6 12.4 85 1.4 ESE 11 15 6 8 1016.0 - 0.0
21/08:30am 13.6 12.5 12.0 90 0.9 SE 9 11 5 6 1016.2 - 0.0
21/08:26am 13.5 12.4 11.9 90 0.9 SSE 9 11 5 6 1016.2 - 0.0
21/08:00am 13.2 12.1 11.8 91 0.7 S 9 11 5 6 1016.2 - 0.0
21/07:30am 13.0 11.8 11.6 91 0.7 SSW 9 11 5 6 1016.1 - 0.0
21/07:00am 12.8 11.6 11.5 92 0.7 SSW 9 9 5 5 1015.9 - 0.0
21/06:30am 12.7 11.8 11.4 92 0.7 S 7 9 4 5 1015.5 - 0.0
21/06:00am 12.7 11.4 11.4 92 0.7 SSW 9 11 5 6 1015.4 - 0.0
21/05:30am 12.7 11.9 11.8 94 0.5 SSE 7 9 4 5 1015.2 - 0.0
21/05:16am 12.5 11.7 11.6 94 0.5 SSE 7 9 4 5 1015.2 - 0.0
21/05:06am 12.4 11.5 11.3 93 0.6 SE 7 9 4 5 1015.3 - 0.0
21/05:00am 12.4 11.5 11.3 93 0.6 SE 7 9 4 5 1015.3 - 0.0
21/04:30am 12.7 11.9 11.6 93 0.6 SSE 7 9 4 5 1015.3 - 0.0
21/04:00am 12.6 11.7 11.3 92 0.7 S 7 9 4 5 1015.3 - 0.0
21/03:30am 12.6 11.7 11.3 92 0.7 SSE 7 9 4 5 1015.5 - 0.0
21/03:00am 12.6 11.7 11.3 92 0.7 S 7 9 4 5 1015.7 - 0.0
21/02:30am 12.7 11.4 11.3 91 0.7 SSE 9 11 5 6 1015.7 - 0.0
21/02:28am 12.8 11.9 11.4 91 0.7 SSE 7 9 4 5 1015.8 - 0.0
21/02:00am 12.9 12.1 11.6 92 0.7 SSE 7 7 4 4 1016.2 - 0.0
21/01:30am 12.8 11.9 11.5 92 0.7 S 7 9 4 5 1016.5 - 0.0
21/01:00am 12.6 11.7 11.3 92 0.7 S 7 9 4 5 1016.7 - 0.0
21/12:30am 12.4 11.1 11.1 92 0.7 SSW 9 11 5 6 1017.2 - 0.0
21/12:00am 12.3 11.2 10.7 90 0.8 S 7 9 4 5 1017.2 - 0.0
 
Date/Time
EDT
Temp
°C
App
Temp
°C
Dew
Point
°C
Rel
Hum
%
Delta-T
°C
Wind Press
QNH
hPa
Press
MSL
hPa
Rain since
9am
mm
Dir  Spd
km/h
Gust
km/h
Spd
kts
Gust
kts
20/11:30pm 13.0 11.7 11.2 89 0.9 SE 9 11 5 6 1017.2 - 0.0

Other formats

Comma delimited format used in spreadsheet applications
http://www.bom.gov.au/fwo/IDV60801/IDV60801.95907.axf

JavaScript Object Notation format (JSON) in row-major order
http://www.bom.gov.au/fwo/IDV60801/IDV60801.95907.json

Data quality

Most of these data are generated automatically and are frequently updated. Quality checks on data are not normally performed. It is possible for incorrect values to appear. Refer to information at About Latest Weather Observations and please check the disclaimer before using these data.